createdAt,value
2018-08-10T00:01:22.224Z,65.02
2018-08-10T00:04:20.304Z,65.07
2018-08-10T00:07:18.357Z,65.23
2018-08-10T00:10:15.456Z,65.39
2018-08-10T00:13:12.402Z,65.72
2018-08-10T00:16:10.622Z,66.21
2018-08-10T00:19:08.420Z,66.67
2018-08-10T00:22:05.839Z,65.69
2018-08-10T00:25:03.755Z,66.72
2018-08-10T00:28:01.834Z,65.80
2018-08-10T00:30:58.907Z,66.20
2018-08-10T00:33:56.159Z,66.13
2018-08-10T00:36:53.393Z,66.26
2018-08-10T00:39:51.080Z,65.75
2018-08-10T00:42:49.143Z,66.14
2018-08-10T00:45:46.307Z,66.48
2018-08-10T00:48:43.793Z,66.50
2018-08-10T00:51:40.844Z,68.32
2018-08-10T00:54:37.999Z,70.13
2018-08-10T00:57:35.932Z,69.90
2018-08-10T01:00:36.202Z,68.82
2018-08-10T01:03:33.170Z,68.87
2018-08-10T01:06:30.295Z,68.22
2018-08-10T01:09:29.203Z,68.08
2018-08-10T01:12:27.143Z,68.45
2018-08-10T01:15:25.275Z,68.14
2018-08-10T01:18:23.296Z,68.68
2018-08-10T01:21:21.264Z,68.37
2018-08-10T01:24:19.163Z,68.51
2018-08-10T01:27:23.267Z,67.89
2018-08-10T01:30:21.194Z,68.63
2018-08-10T01:33:19.106Z,68.72
2018-08-10T01:36:16.896Z,68.94
2018-08-10T01:39:14.762Z,68.52
2018-08-10T01:42:12.144Z,68.97
2018-08-10T01:45:09.777Z,68.13
2018-08-10T01:48:07.332Z,68.10
2018-08-10T01:51:04.623Z,68.34
2018-08-10T01:54:02.595Z,67.67
2018-08-10T01:56:59.835Z,67.84
2018-08-10T01:59:57.778Z,68.31
2018-08-10T02:02:55.599Z,67.81
2018-08-10T02:05:53.562Z,68.59
2018-08-10T02:08:51.519Z,68.35
2018-08-10T02:11:49.723Z,67.62
2018-08-10T02:14:46.988Z,66.74
2018-08-10T02:17:44.931Z,66.93
2018-08-10T02:20:42.939Z,67.52
2018-08-10T02:23:40.195Z,67.23
2018-08-10T02:26:38.375Z,67.01
2018-08-10T02:29:35.623Z,65.83
2018-08-10T02:32:33.625Z,65.66
2018-08-10T02:35:30.864Z,65.42
2018-08-10T02:38:28.799Z,65.94
2018-08-10T02:41:26.839Z,66.02
2018-08-10T02:44:24.056Z,65.87
2018-08-10T02:47:26.020Z,65.35
2018-08-10T02:50:23.483Z,64.72
2018-08-10T02:53:20.603Z,65.42
2018-08-10T02:56:17.835Z,65.58
2018-08-10T02:59:15.144Z,65.28
2018-08-10T03:02:12.502Z,66.13
2018-08-10T03:05:09.774Z,65.87
2018-08-10T03:08:07.760Z,65.67
2018-08-10T03:11:05.171Z,65.64
2018-08-10T03:14:03.100Z,65.85
2018-08-10T03:17:00.129Z,65.48
2018-08-10T03:19:58.059Z,65.74
2018-08-10T03:22:55.788Z,66.64
2018-08-10T03:25:52.815Z,66.42
2018-08-10T03:28:50.732Z,66.13
2018-08-10T03:31:48.190Z,66.27
2018-08-10T03:34:46.184Z,66.37
2018-08-10T03:37:44.231Z,66.64
2018-08-10T03:40:42.084Z,66.22
2018-08-10T03:43:39.948Z,66.39
2018-08-10T03:46:36.923Z,66.46
2018-08-10T03:49:34.092Z,66.58
2018-08-10T03:52:31.890Z,65.71
2018-08-10T03:55:29.153Z,65.19
2018-08-10T03:58:26.240Z,65.31
2018-08-10T04:01:24.212Z,64.79
2018-08-10T04:04:22.338Z,65.52
2018-08-10T04:07:20.475Z,64.70
2018-08-10T04:10:17.631Z,64.87
2018-08-10T04:13:15.484Z,64.96
2018-08-10T04:16:13.067Z,64.98
2018-08-10T04:19:10.615Z,64.62
2018-08-10T04:22:07.804Z,65.24
2018-08-10T04:25:05.035Z,65.40
2018-08-10T04:28:03.159Z,65.20
2018-08-10T04:31:01.272Z,65.77
2018-08-10T04:33:58.467Z,65.67
2018-08-10T04:36:56.437Z,65.14
2018-08-10T04:39:54.422Z,65.16
2018-08-10T04:42:52.391Z,65.28
2018-08-10T04:45:49.919Z,65.76
2018-08-10T04:48:47.103Z,65.80
2018-08-10T04:51:45.048Z,66.17
2018-08-10T04:54:43.060Z,66.30
2018-08-10T04:57:40.980Z,65.94
2018-08-10T05:00:38.912Z,66.36
2018-08-10T05:03:36.080Z,65.41
2018-08-10T05:06:33.715Z,65.77
2018-08-10T05:09:31.865Z,65.94
2018-08-10T05:12:29.127Z,65.69
2018-08-10T05:15:27.438Z,65.29
2018-08-10T05:18:25.012Z,65.11
2018-08-10T05:21:23.100Z,65.49
2018-08-10T05:24:20.135Z,65.11
2018-08-10T05:27:17.643Z,64.92
2018-08-10T05:30:16.803Z,65.19
2018-08-10T05:33:14.115Z,65.53
2018-08-10T05:36:11.838Z,64.99
2018-08-10T05:39:09.188Z,66.10
2018-08-10T05:42:06.759Z,65.28
2018-08-10T05:45:04.947Z,64.69
2018-08-10T05:48:02.894Z,65.39
2018-08-10T05:51:00.083Z,65.37
2018-08-10T05:53:58.037Z,65.05
2018-08-10T05:56:55.179Z,65.43
2018-08-10T05:59:53.271Z,65.25
2018-08-10T06:02:51.339Z,65.06
2018-08-10T06:05:49.416Z,64.82
2018-08-10T06:08:47.479Z,65.10
2018-08-10T06:11:45.560Z,65.35
2018-08-10T06:14:43.507Z,64.81
2018-08-10T06:17:40.815Z,64.90
2018-08-10T06:20:38.012Z,65.05
2018-08-10T06:23:35.316Z,64.48
2018-08-10T06:26:32.419Z,64.30
2018-08-10T06:29:30.235Z,63.55
2018-08-10T06:32:27.175Z,61.86
2018-08-10T06:35:25.056Z,57.56
2018-08-10T06:38:22.227Z,54.58
2018-08-10T06:41:20.307Z,52.54
2018-08-10T06:44:18.171Z,49.52
2018-08-10T06:47:15.591Z,48.23
2018-08-10T06:50:12.641Z,44.86
2018-08-10T06:53:09.965Z,43.56
2018-08-10T06:56:07.692Z,46.03
2018-08-10T06:59:04.904Z,48.32
2018-08-10T07:02:01.981Z,47.38
2018-08-10T07:04:59.146Z,48.17
2018-08-10T07:07:56.390Z,46.70
2018-08-10T07:10:54.388Z,45.09
2018-08-10T07:13:52.473Z,46.43
2018-08-10T07:16:50.555Z,45.09
2018-08-10T07:19:47.556Z,45.55
2018-08-10T07:22:44.639Z,46.08
2018-08-10T07:25:42.705Z,44.79
2018-08-10T07:28:39.895Z,44.23
2018-08-10T07:31:37.080Z,45.45
2018-08-10T07:34:35.018Z,46.13
2018-08-10T07:37:32.910Z,45.12
2018-08-10T07:40:30.744Z,44.55
2018-08-10T07:43:27.966Z,43.69
2018-08-10T07:46:25.872Z,44.72
2018-08-10T07:49:23.732Z,43.39
2018-08-10T07:52:21.574Z,41.52
2018-08-10T07:55:18.803Z,38.36
2018-08-10T07:58:16.924Z,38.44
2018-08-10T08:01:15.036Z,36.82
2018-08-10T08:04:12.784Z,37.70
2018-08-10T08:07:10.832Z,40.57
2018-08-10T08:10:08.879Z,39.38
2018-08-10T08:13:06.144Z,37.09
2018-08-10T08:16:04.099Z,37.70
2018-08-10T08:19:02.176Z,39.74
2018-08-10T08:22:31.972Z,41.02
2018-08-10T08:25:29.941Z,38.87
2018-08-10T08:28:31.152Z,36.48
2018-08-10T08:31:28.470Z,37.22
2018-08-10T08:34:28.458Z,37.37
2018-08-10T08:37:26.391Z,39.98
2018-08-10T08:40:31.730Z,36.90
2018-08-10T08:43:29.179Z,37.69
2018-08-10T08:46:26.752Z,36.50
2018-08-10T08:49:23.837Z,37.26
2018-08-10T08:52:21.970Z,37.40
2018-08-10T08:55:31.387Z,36.26
2018-08-10T08:58:28.562Z,37.26
2018-08-10T09:01:25.942Z,38.16
2018-08-10T09:04:43.647Z,37.09
2018-08-10T09:07:40.953Z,36.50
2018-08-10T09:10:38.901Z,34.59
2018-08-10T09:13:36.159Z,36.14
2018-08-10T09:16:34.238Z,35.29
2018-08-10T09:19:31.424Z,34.88
2018-08-10T09:22:29.152Z,35.98
2018-08-10T09:25:30.412Z,34.66
2018-08-10T09:28:28.054Z,34.79
2018-08-10T09:31:25.066Z,35.02
2018-08-10T09:34:23.238Z,34.68
2018-08-10T09:37:20.474Z,33.04
2018-08-10T09:40:21.402Z,32.55
2018-08-10T09:43:19.535Z,31.70
2018-08-10T09:46:17.470Z,36.35
2018-08-10T09:49:15.367Z,37.78
2018-08-10T09:52:12.550Z,39.95
2018-08-10T09:55:45.343Z,39.38
2018-08-10T09:58:42.634Z,38.83
2018-08-10T10:01:47.079Z,38.26
2018-08-10T10:04:44.505Z,38.60
2018-08-10T10:07:42.551Z,39.54
2018-08-10T10:10:40.279Z,40.83
2018-08-10T10:13:37.533Z,40.09
2018-08-10T10:16:35.488Z,40.16
2018-08-10T10:19:33.556Z,40.78
2018-08-10T10:22:30.861Z,41.11
2018-08-10T10:25:28.409Z,43.34
2018-08-10T10:28:26.276Z,43.64
2018-08-10T10:31:24.050Z,43.94
2018-08-10T10:34:21.884Z,43.91
2018-08-10T10:37:19.388Z,42.93
2018-08-10T10:40:17.258Z,42.05
2018-08-10T10:43:14.270Z,41.58
2018-08-10T10:46:12.289Z,41.72
2018-08-10T10:49:10.605Z,40.72
2018-08-10T10:52:07.915Z,42.44
2018-08-10T10:55:05.983Z,42.44
2018-08-10T10:58:04.049Z,40.71
2018-08-10T11:01:01.157Z,36.26
2018-08-10T11:03:59.383Z,34.91
2018-08-10T11:06:57.104Z,34.95
2018-08-10T11:09:55.001Z,34.87
2018-08-10T11:12:51.975Z,34.03
2018-08-10T11:15:49.981Z,34.43
2018-08-10T11:18:47.120Z,32.89
2018-08-10T11:21:44.803Z,32.56
2018-08-10T11:24:42.771Z,31.97
2018-08-10T11:27:40.317Z,34.44
2018-08-10T11:30:38.153Z,35.37
2018-08-10T11:33:35.675Z,34.84
2018-08-10T11:36:33.590Z,36.36
2018-08-10T11:39:31.756Z,37.60
2018-08-10T11:42:28.894Z,37.76
2018-08-10T11:45:26.229Z,37.64
2018-08-10T11:48:24.193Z,38.36
2018-08-10T11:51:22.193Z,38.14
2018-08-10T11:54:19.422Z,37.69
2018-08-10T11:57:16.549Z,37.25
2018-08-10T12:00:14.463Z,36.85
2018-08-10T12:03:12.605Z,36.94
2018-08-10T12:06:10.314Z,36.60
2018-08-10T12:09:08.410Z,37.14
2018-08-10T12:12:05.576Z,37.75
2018-08-10T12:15:03.731Z,37.65
2018-08-10T12:18:00.885Z,37.58
2018-08-10T12:20:57.936Z,38.78
2018-08-10T12:23:55.151Z,38.62
2018-08-10T12:26:52.370Z,38.73
2018-08-10T12:29:50.498Z,38.42
2018-08-10T12:32:47.890Z,37.83
2018-08-10T12:35:45.152Z,37.00
2018-08-10T12:38:42.287Z,36.88
2018-08-10T12:41:39.560Z,37.25
2018-08-10T12:44:36.588Z,34.93
2018-08-10T12:47:34.176Z,34.28
2018-08-10T12:50:31.614Z,33.83
2018-08-10T12:53:29.552Z,35.08
2018-08-10T12:56:27.694Z,33.85
2018-08-10T12:59:25.546Z,35.04
2018-08-10T13:02:23.783Z,33.90
2018-08-10T13:05:22.124Z,34.52
2018-08-10T13:08:19.251Z,34.94
2018-08-10T13:11:17.300Z,35.35
2018-08-10T13:14:15.358Z,35.40
2018-08-10T13:17:12.435Z,34.87
2018-08-10T13:20:09.522Z,35.47
2018-08-10T13:23:06.715Z,33.47
2018-08-10T13:26:04.327Z,34.90
2018-08-10T13:29:01.612Z,34.89
2018-08-10T13:31:59.718Z,34.01
2018-08-10T13:34:57.563Z,34.93
2018-08-10T13:37:55.051Z,33.66
2018-08-10T13:40:53.086Z,33.40
2018-08-10T13:43:50.547Z,33.28
2018-08-10T13:46:47.665Z,33.33
2018-08-10T13:49:45.538Z,33.72
2018-08-10T13:52:43.514Z,34.14
2018-08-10T13:55:41.011Z,34.87
2018-08-10T13:58:38.281Z,34.68
2018-08-10T14:02:20.420Z,33.92
2018-08-10T14:05:18.033Z,33.66
2018-08-10T14:08:15.940Z,34.74
2018-08-10T14:11:13.837Z,35.12
2018-08-10T14:14:11.745Z,33.97
2018-08-10T14:17:09.543Z,35.65
2018-08-10T14:20:06.830Z,35.10
2018-08-10T14:23:04.780Z,33.69
2018-08-10T14:26:01.910Z,33.82
2018-08-10T14:28:59.747Z,33.39
2018-08-10T14:31:57.465Z,34.55
2018-08-10T14:34:55.416Z,34.09
2018-08-10T14:37:53.550Z,34.85
2018-08-10T14:40:51.467Z,34.84
2018-08-10T14:43:49.492Z,34.28
2018-08-10T14:46:46.528Z,34.33
2018-08-10T14:49:44.278Z,34.66
2018-08-10T14:52:42.152Z,35.73
2018-08-10T14:55:40.166Z,34.97
2018-08-10T14:58:38.233Z,34.72
2018-08-10T15:01:36.323Z,34.59
2018-08-10T15:04:34.109Z,34.52
2018-08-10T15:07:32.134Z,34.25
2018-08-10T15:10:31.151Z,35.08
2018-08-10T15:13:29.101Z,34.81
2018-08-10T15:16:27.207Z,34.53
2018-08-10T15:19:25.059Z,34.55
2018-08-10T15:22:23.046Z,34.85
2018-08-10T15:25:20.732Z,34.63
2018-08-10T15:28:19.503Z,34.64
2018-08-10T15:31:21.736Z,35.47
2018-08-10T15:34:19.298Z,35.01
2018-08-10T15:37:17.129Z,34.36
2018-08-10T15:40:16.133Z,35.58
2018-08-10T15:43:13.955Z,35.96
2018-08-10T15:46:12.076Z,35.53
2018-08-10T15:49:10.041Z,35.94
2018-08-10T15:52:10.030Z,35.72
2018-08-10T15:55:07.775Z,35.50
2018-08-10T15:58:05.148Z,35.31
2018-08-10T16:01:06.001Z,35.43
2018-08-10T16:04:03.293Z,35.61
2018-08-10T16:07:01.238Z,35.71
2018-08-10T16:09:59.398Z,36.37
2018-08-10T16:12:56.994Z,35.89
2018-08-10T16:15:54.860Z,35.97
2018-08-10T16:18:52.865Z,35.67
2018-08-10T16:21:50.675Z,36.35
2018-08-10T16:24:48.821Z,36.25
2018-08-10T16:27:48.020Z,35.52
2018-08-10T16:30:45.986Z,35.77
2018-08-10T16:33:44.007Z,36.08
2018-08-10T16:36:42.006Z,35.79
2018-08-10T16:39:39.934Z,35.97
2018-08-10T16:42:37.957Z,36.13
2018-08-10T16:45:35.972Z,35.98
2018-08-10T16:48:33.707Z,36.28
2018-08-10T16:51:31.824Z,36.07
2018-08-10T16:54:28.848Z,35.95
2018-08-10T16:57:26.819Z,36.53
2018-08-10T17:00:25.801Z,36.70
2018-08-10T17:03:23.987Z,36.64
2018-08-10T17:06:21.354Z,36.36
2018-08-10T17:09:20.423Z,36.69
2018-08-10T17:12:17.838Z,36.63
2018-08-10T17:15:15.447Z,36.85
2018-08-10T17:18:13.002Z,36.85
2018-08-10T17:21:10.647Z,36.60
2018-08-10T17:24:08.123Z,36.69
2018-08-10T17:27:05.640Z,37.15
2018-08-10T17:30:03.036Z,37.72
2018-08-10T17:33:00.506Z,36.99
2018-08-10T17:35:57.971Z,37.49
2018-08-10T17:38:55.481Z,37.36
2018-08-10T17:41:52.879Z,36.85
2018-08-10T17:44:50.332Z,37.87
2018-08-10T17:47:47.787Z,37.43
2018-08-10T17:50:45.275Z,36.69
2018-08-10T17:53:42.147Z,37.56
2018-08-10T17:56:39.588Z,36.81
2018-08-10T17:59:37.136Z,37.52
2018-08-10T18:02:34.705Z,37.80
2018-08-10T18:05:32.288Z,37.30
2018-08-10T18:08:29.875Z,38.23
2018-08-10T18:11:27.512Z,38.37
2018-08-10T18:14:25.063Z,38.56
2018-08-10T18:17:22.680Z,38.36
2018-08-10T18:20:22.146Z,39.26
2018-08-10T18:23:19.695Z,38.83
2018-08-10T18:26:17.236Z,39.27
2018-08-10T18:29:14.827Z,38.82
2018-08-10T18:32:12.428Z,39.07
2018-08-10T18:35:10.093Z,39.10
2018-08-10T18:38:07.721Z,39.67
2018-08-10T18:41:05.289Z,39.24
2018-08-10T18:44:02.886Z,39.40
2018-08-10T18:47:00.269Z,39.72
2018-08-10T18:49:57.618Z,39.53
2018-08-10T18:52:55.287Z,40.42
2018-08-10T18:55:52.962Z,40.80
2018-08-10T18:58:50.406Z,41.88
2018-08-10T19:01:48.109Z,42.34
2018-08-10T19:04:45.755Z,42.06
2018-08-10T19:07:43.311Z,42.38
2018-08-10T19:10:41.881Z,43.20
2018-08-10T19:13:39.053Z,42.63
2018-08-10T19:16:36.567Z,44.82
2018-08-10T19:19:34.115Z,45.05
2018-08-10T19:22:31.755Z,46.47
2018-08-10T19:25:29.173Z,46.75
2018-08-10T19:28:26.866Z,47.51
2018-08-10T19:31:24.383Z,48.67
2018-08-10T19:34:22.036Z,48.58
2018-08-10T19:37:19.642Z,48.21
2018-08-10T19:40:18.113Z,46.71
2018-08-10T19:43:15.599Z,45.46
2018-08-10T19:46:13.098Z,45.13
2018-08-10T19:49:10.726Z,44.68
2018-08-10T19:52:08.249Z,45.20
2018-08-10T19:55:05.741Z,45.04
2018-08-10T19:58:03.456Z,45.42
2018-08-10T20:01:00.919Z,44.89
2018-08-10T20:03:58.552Z,45.32
2018-08-10T20:06:56.236Z,45.23
2018-08-10T20:13:14.000Z,45.77
2018-08-10T20:16:12.041Z,45.49
2018-08-10T20:19:10.097Z,46.05
2018-08-10T20:22:08.204Z,46.37
2018-08-10T20:25:06.382Z,46.10
2018-08-10T20:28:04.401Z,45.75
2018-08-10T20:31:02.344Z,45.98
2018-08-10T20:34:00.184Z,45.73
2018-08-10T20:36:58.227Z,45.88
2018-08-10T20:39:56.132Z,46.33
2018-08-10T20:42:54.121Z,45.45
2018-08-10T20:45:51.970Z,46.10
2018-08-10T20:48:49.909Z,45.54
2018-08-10T20:51:47.956Z,45.47
2018-08-10T20:54:45.795Z,44.85
2018-08-10T20:57:43.752Z,45.58
2018-08-10T21:00:41.777Z,45.42
2018-08-10T21:03:39.692Z,45.64
2018-08-10T21:06:37.694Z,44.83
2018-08-10T21:09:35.756Z,45.20
2018-08-10T21:12:33.852Z,44.48
2018-08-10T21:15:31.870Z,44.50
2018-08-10T21:18:29.649Z,43.96
2018-08-10T21:21:27.527Z,44.14
2018-08-10T21:24:25.342Z,43.03
2018-08-10T21:27:23.275Z,43.49
2018-08-10T21:30:24.386Z,43.65
2018-08-10T21:33:22.296Z,43.68
2018-08-10T21:36:20.312Z,43.17
2018-08-10T21:39:20.415Z,44.48
2018-08-10T21:42:18.379Z,43.94
2018-08-10T21:45:15.471Z,44.62
2018-08-10T21:48:14.333Z,45.15
2018-08-10T21:51:12.105Z,44.47
2018-08-10T21:54:09.839Z,45.45
2018-08-10T21:57:07.744Z,44.80
2018-08-10T22:00:05.636Z,45.93
2018-08-10T22:03:03.515Z,45.12
2018-08-10T22:06:01.490Z,45.32
2018-08-10T22:08:59.427Z,46.00
2018-08-10T22:11:57.068Z,46.77
2018-08-10T22:15:01.239Z,46.92
2018-08-10T22:18:05.159Z,46.29
2018-08-10T22:21:04.166Z,46.85
2018-08-10T22:24:01.996Z,46.35
2018-08-10T22:27:00.188Z,47.17
2018-08-10T22:29:58.124Z,46.65
2018-08-10T22:32:55.823Z,46.95
2018-08-10T22:36:00.723Z,47.04
2018-08-10T22:38:58.478Z,47.46
2018-08-10T22:41:56.295Z,47.22
2018-08-10T22:44:54.032Z,47.69
2018-08-10T22:47:52.028Z,48.03
2018-08-10T22:50:49.955Z,47.70
2018-08-10T22:53:48.186Z,47.77
2018-08-10T22:56:45.971Z,47.11
2018-08-10T22:59:43.720Z,47.34
2018-08-10T23:02:41.611Z,47.42
2018-08-10T23:05:39.323Z,46.97
2018-08-10T23:08:37.306Z,47.45
2018-08-10T23:11:35.043Z,47.46
2018-08-10T23:14:33.131Z,46.70
2018-08-10T23:17:31.099Z,47.24
2018-08-10T23:20:29.975Z,47.13
2018-08-10T23:23:27.670Z,47.10
2018-08-10T23:26:25.711Z,47.01
2018-08-10T23:29:23.737Z,47.12
2018-08-10T23:32:21.705Z,47.24
2018-08-10T23:35:19.606Z,47.40
2018-08-10T23:38:17.592Z,47.30
2018-08-10T23:41:15.655Z,47.74
2018-08-10T23:44:13.563Z,47.90
2018-08-10T23:47:11.616Z,48.00
2018-08-10T23:50:09.615Z,48.25
2018-08-10T23:53:07.692Z,47.74
2018-08-10T23:56:04.844Z,47.43
2018-08-10T23:59:02.862Z,47.93
